메인 페이지
METAR-TAF:

METAR-TAF

공항 :

런던 스탠스테드 공항

런던 스탠스테드 국제공항, 잉글랜드

위도: 51-53N, 경도: 000-14E, 고도: 106m

현재 날씨관측

예보는 21분 전, 03:20시(UTC)에 발표되었습니다.
서북서5kt
온도 10°C
습도 100%
기압 1014 hPa
시정 10km 이상
고도 1700ft 상공 구름 많음
고도 2500ft 상공 구름 많음
약한비,

METAR: EGSS 130320Z AUTO 30005KT 9999 -RA BKN017 BKN025 10/10 Q1014

시각: 04:41 (03:41 UTC)

예보

예보는 4 시간 38분 전, 23:03시(UTC)에 발표되었습니다.
예보 대상 시간: 13일 00시부터 14일 06시까지 (UTC)
북서6kt
시정 10km 이상
고도 3500ft 상공 구름 보통
일시적
13일 00시부터 13일 10시까지 (UTC)
시정: 8000m
고도 1000ft 상공 구름 많음
약한비
확률 40% :
일시적
13일 00시부터 13일 08시까지 (UTC)
시정: 4000m
고도 600ft 상공 구름 많음
확률 30% :
일시적
13일 15시부터 13일 20시까지 (UTC)
시정: 7000m
소나기,

TAF: EGSS 122303Z 1300/1406 32006KT 9999 SCT035 TEMPO 1300/1310 8000 -RA BKN010 PROB40 TEMPO 1300/1308 4000 RA BKN006 PROB30 TEMPO 1315/1320 7000 SHRA

4,000개 이상의 공항 관측 자료 및 예보 (METAR 및 TAF 보고).

지도상에서 검색 가능한 기상관측소가 노란 점과 빨간 점으로 표시되어 있습니다.

기상관측소 명을 보려면 표시 위로 마우스를 이동하세요.

날씨 관측과 예보를 보려면 클릭하세요.

지도 변경 : 확대하려면 엑스 표시가 있는 녹색 버튼, 축소하려면 빼기 표시가 있는 녹색 버튼, 다음 페이지의 지도를 보려면 녹색 화살표를 클릭하세요.


METAR-TAF: